Saint Marie, MT (59231)

10:53 AM MDT on August 29, 2014 (GMT -0600)
City Center - AA7AS | Change Station
CLOSE
Current Station
Personal Weather Station
Location: Glasgow, MT
Elevation: 2090 ft
Nearby Weather Stations
Active Advisory: Flood Warning Active Notice: Local Storm Report

Elev 2090 ft 48.20 °N, 106.64 °W | Updated 4 minutes ago

Overcast
Overcast
65.1 °F
Feels Like 65.1 °F
N
2.7
Wind Variable Wind from West

Today
High -- | Low -- °F
--% Chance of Precip.
Yesterday
High -- | Low -- °F
Precip. -- in
6:20 AM 7:53 PM
Waxing Crescent, 15% visible
Pressure 30.04 in
Visibility 10.0 miles
Clouds Overcast 5500 ft
Dew Point 55 °F
Humidity 69%
Rainfall 0.02 in
Snow Depth Not available.
UV 1 out of 12
Pollen 8.70 out of 12
Air Quality Not available.
Flu Activity Not available.
METAR KGGW 291553Z AUTO 35007KT 10SM OVC055 16/12 A3005 RMK AO2 SLP172 T01610122

More Conditions Fewer Conditions

Pressure 30.04 in
Visibility 10.0 miles
Clouds Overcast 5500 ft
Dew Point 55 °F
Humidity 69%
Rainfall 0.02 in
Snow Depth Not available.
UV 1 out of 12
Pollen 8.70 out of 12
Air Quality Not available.
Flu Activity Not available.
METAR KGGW 291553Z AUTO 35007KT 10SM OVC055 16/12 A3005 RMK AO2 SLP172 T01610122

More Conditions Fewer Conditions

10-Day Weather Forecast

Almanac

Astronomy

Aug. 29, 2014 Rise Set
Actual Time 6:20 AM MDT 7:53 PM MDT
Civil Twilight 5:47 AM MDT 8:26 PM MDT
Nautical Twilight 5:07 AM MDT 9:05 PM MDT
Astronomical Twilight 4:24 AM MDT 9:48 PM MDT
Moon 10:33 AM MDT 9:30 PM MDT
Length of Visible Light 14h 38m
Length of Day
13h 33m
Tomorrow will be 3m 22s shorter.
Waxing Crescent, 15% of the Moon is Illuminated
Today
Waxing Crescent
Sep 2
First Quarter
Sep 8
Full
Sep 15
Last Quarter
Sep 24
New

Today's Extremes

State Highs State Lows

Community

WunderPhotos

Upload Photos

1,748,285 photos uploaded!

Nearby

Snow Depth

Station Depth Elevation
Rocky Boy 0 in 4700 ft
Crystal Lake 0 in 6050 ft
Spur Park 0 in 8100 ft
Deadman Creek 0 in 6450 ft
Stringer Creek 0 in 6550 ft

Earthquake Activity

City Distance Mag. Time & Date
No recent earthquake activity has been reported nearby.
Minimum magnitude displayed is 2.5.

Coastal Water Temperatures

Place Temperature
No Stations Reporting

Nearby Weather Stations